sensor_id;sensor_type;location;lat;lon;timestamp;P1;durP1;ratioP1;P2;durP2;ratioP2
31386;SDS011;69978;50.096;8.448;2023-10-09T00:00:32;11.70;;;2.30;;
31386;SDS011;69978;50.096;8.448;2023-10-09T00:03:05;6.43;;;2.00;;
31386;SDS011;69978;50.096;8.448;2023-10-09T00:05:31;7.70;;;1.75;;
31386;SDS011;69978;50.096;8.448;2023-10-09T00:08:24;8.23;;;2.10;;
31386;SDS011;69978;50.096;8.448;2023-10-09T00:10:56;5.75;;;1.83;;
31386;SDS011;69978;50.096;8.448;2023-10-09T00:13:42;7.60;;;2.17;;
31386;SDS011;69978;50.096;8.448;2023-10-09T00:16:15;7.38;;;2.20;;
31386;SDS011;69978;50.096;8.448;2023-10-09T00:18:47;11.35;;;2.42;;
31386;SDS011;69978;50.096;8.448;2023-10-09T00:21:16;5.28;;;2.00;;
31386;SDS011;69978;50.096;8.448;2023-10-09T00:23:45;7.10;;;2.10;;
31386;SDS011;69978;50.096;8.448;2023-10-09T00:26:24;8.30;;;2.40;;
31386;SDS011;69978;50.096;8.448;2023-10-09T00:28:56;11.37;;;2.87;;
31386;SDS011;69978;50.096;8.448;2023-10-09T00:31:21;9.98;;;2.33;;
31386;SDS011;69978;50.096;8.448;2023-10-09T00:33:59;8.38;;;2.05;;
31386;SDS011;69978;50.096;8.448;2023-10-09T00:36:32;12.93;;;2.53;;
31386;SDS011;69978;50.096;8.448;2023-10-09T00:38:58;8.90;;;2.22;;
31386;SDS011;69978;50.096;8.448;2023-10-09T00:41:36;6.82;;;2.08;;
31386;SDS011;69978;50.096;8.448;2023-10-09T00:44:02;11.70;;;2.60;;
31386;SDS011;69978;50.096;8.448;2023-10-09T00:46:32;6.97;;;2.17;;
31386;SDS011;69978;50.096;8.448;2023-10-09T00:48:59;8.00;;;2.20;;
31386;SDS011;69978;50.096;8.448;2023-10-09T00:51:27;5.05;;;2.00;;
31386;SDS011;69978;50.096;8.448;2023-10-09T00:53:59;6.82;;;1.98;;
31386;SDS011;69978;50.096;8.448;2023-10-09T00:59:06;5.55;;;2.22;;
31386;SDS011;69978;50.096;8.448;2023-10-09T01:01:40;10.95;;;2.40;;
31386;SDS011;69978;50.096;8.448;2023-10-09T01:04:10;6.88;;;2.30;;
31386;SDS011;69978;50.096;8.448;2023-10-09T01:06:44;10.02;;;2.38;;
31386;SDS011;69978;50.096;8.448;2023-10-09T01:09:12;4.53;;;2.00;;
31386;SDS011;69978;50.096;8.448;2023-10-09T01:11:39;6.82;;;2.08;;
31386;SDS011;69978;50.096;8.448;2023-10-09T01:14:32;6.20;;;1.83;;
31386;SDS011;69978;50.096;8.448;2023-10-09T01:17:01;6.20;;;2.15;;
31386;SDS011;69978;50.096;8.448;2023-10-09T01:19:31;12.02;;;2.53;;
31386;SDS011;69978;50.096;8.448;2023-10-09T01:21:58;7.15;;;2.40;;
31386;SDS011;69978;50.096;8.448;2023-10-09T01:24:29;11.13;;;2.90;;
31386;SDS011;69978;50.096;8.448;2023-10-09T01:27:00;14.88;;;3.00;;
31386;SDS011;69978;50.096;8.448;2023-10-09T01:29:30;6.50;;;2.38;;
31386;SDS011;69978;50.096;8.448;2023-10-09T01:31:55;8.63;;;2.50;;
31386;SDS011;69978;50.096;8.448;2023-10-09T01:34:25;8.52;;;2.90;;
31386;SDS011;69978;50.096;8.448;2023-10-09T01:37:12;13.02;;;3.17;;
31386;SDS011;69978;50.096;8.448;2023-10-09T01:39:49;15.55;;;3.88;;
31386;SDS011;69978;50.096;8.448;2023-10-09T01:42:16;16.50;;;3.25;;
31386;SDS011;69978;50.096;8.448;2023-10-09T01:45:08;11.07;;;3.35;;
31386;SDS011;69978;50.096;8.448;2023-10-09T01:47:37;12.95;;;2.83;;
31386;SDS011;69978;50.096;8.448;2023-10-09T01:50:05;12.25;;;2.97;;
31386;SDS011;69978;50.096;8.448;2023-10-09T01:52:45;15.88;;;3.33;;
31386;SDS011;69978;50.096;8.448;2023-10-09T01:55:10;9.55;;;2.90;;
31386;SDS011;69978;50.096;8.448;2023-10-09T01:57:52;9.40;;;2.58;;
31386;SDS011;69978;50.096;8.448;2023-10-09T02:00:18;10.55;;;2.70;;
31386;SDS011;69978;50.096;8.448;2023-10-09T02:02:49;10.35;;;2.50;;
31386;SDS011;69978;50.096;8.448;2023-10-09T02:05:15;10.68;;;2.22;;
31386;SDS011;69978;50.096;8.448;2023-10-09T02:07:42;6.20;;;2.00;;
31386;SDS011;69978;50.096;8.448;2023-10-09T02:10:16;8.90;;;2.60;;
31386;SDS011;69978;50.096;8.448;2023-10-09T02:12:51;12.18;;;2.78;;
31386;SDS011;69978;50.096;8.448;2023-10-09T02:15:25;5.60;;;2.10;;
31386;SDS011;69978;50.096;8.448;2023-10-09T02:18:10;10.00;;;2.63;;
31386;SDS011;69978;50.096;8.448;2023-10-09T02:20:45;5.60;;;2.10;;
31386;SDS011;69978;50.096;8.448;2023-10-09T02:23:13;4.90;;;2.30;;
31386;SDS011;69978;50.096;8.448;2023-10-09T02:25:42;10.57;;;1.92;;
31386;SDS011;69978;50.096;8.448;2023-10-09T02:28:10;7.63;;;2.40;;
31386;SDS011;69978;50.096;8.448;2023-10-09T02:30:43;7.78;;;2.38;;
31386;SDS011;69978;50.096;8.448;2023-10-09T02:33:12;8.77;;;2.25;;
31386;SDS011;69978;50.096;8.448;2023-10-09T02:35:43;9.82;;;2.42;;
31386;SDS011;69978;50.096;8.448;2023-10-09T02:38:10;11.88;;;2.33;;
31386;SDS011;69978;50.096;8.448;2023-10-09T02:40:40;9.10;;;2.28;;
31386;SDS011;69978;50.096;8.448;2023-10-09T02:43:29;9.93;;;2.78;;
31386;SDS011;69978;50.096;8.448;2023-10-09T02:46:02;9.98;;;2.90;;
31386;SDS011;69978;50.096;8.448;2023-10-09T02:48:39;6.32;;;2.20;;
31386;SDS011;69978;50.096;8.448;2023-10-09T02:51:11;6.43;;;2.03;;
31386;SDS011;69978;50.096;8.448;2023-10-09T02:53:42;6.93;;;2.13;;
31386;SDS011;69978;50.096;8.448;2023-10-09T02:56:08;6.93;;;2.22;;
31386;SDS011;69978;50.096;8.448;2023-10-09T02:58:37;5.10;;;2.28;;
31386;SDS011;69978;50.096;8.448;2023-10-09T03:01:08;5.30;;;2.00;;
31386;SDS011;69978;50.096;8.448;2023-10-09T03:03:35;7.18;;;2.33;;
31386;SDS011;69978;50.096;8.448;2023-10-09T03:06:03;12.50;;;2.70;;
31386;SDS011;69978;50.096;8.448;2023-10-09T03:08:35;7.13;;;2.20;;
31386;SDS011;69978;50.096;8.448;2023-10-09T03:11:02;8.80;;;2.40;;
31386;SDS011;69978;50.096;8.448;2023-10-09T03:13:27;8.75;;;2.50;;
31386;SDS011;69978;50.096;8.448;2023-10-09T03:15:54;10.75;;;2.70;;
31386;SDS011;69978;50.096;8.448;2023-10-09T03:18:19;4.97;;;2.20;;
31386;SDS011;69978;50.096;8.448;2023-10-09T03:20:45;10.15;;;3.00;;
31386;SDS011;69978;50.096;8.448;2023-10-09T03:23:11;9.65;;;2.50;;
31386;SDS011;69978;50.096;8.448;2023-10-09T03:25:39;7.55;;;2.58;;
31386;SDS011;69978;50.096;8.448;2023-10-09T03:28:05;6.75;;;2.40;;
31386;SDS011;69978;50.096;8.448;2023-10-09T03:30:31;7.32;;;2.30;;
31386;SDS011;69978;50.096;8.448;2023-10-09T03:32:58;7.50;;;2.78;;
31386;SDS011;69978;50.096;8.448;2023-10-09T03:35:25;9.93;;;2.83;;
31386;SDS011;69978;50.096;8.448;2023-10-09T03:40:44;6.13;;;2.05;;
31386;SDS011;69978;50.096;8.448;2023-10-09T03:43:14;6.45;;;2.13;;
31386;SDS011;69978;50.096;8.448;2023-10-09T03:45:40;8.68;;;2.78;;
31386;SDS011;69978;50.096;8.448;2023-10-09T03:48:18;7.05;;;2.25;;
31386;SDS011;69978;50.096;8.448;2023-10-09T03:50:51;7.80;;;2.22;;
31386;SDS011;69978;50.096;8.448;2023-10-09T03:53:33;8.65;;;2.25;;
31386;SDS011;69978;50.096;8.448;2023-10-09T03:56:04;8.25;;;2.20;;
31386;SDS011;69978;50.096;8.448;2023-10-09T03:58:36;6.63;;;1.88;;
31386;SDS011;69978;50.096;8.448;2023-10-09T04:01:06;8.07;;;2.20;;
31386;SDS011;69978;50.096;8.448;2023-10-09T04:03:38;6.63;;;2.10;;
31386;SDS011;69978;50.096;8.448;2023-10-09T04:06:04;7.45;;;2.25;;
31386;SDS011;69978;50.096;8.448;2023-10-09T04:08:33;5.18;;;2.03;;
31386;SDS011;69978;50.096;8.448;2023-10-09T04:11:05;7.80;;;1.92;;
31386;SDS011;69978;50.096;8.448;2023-10-09T04:13:40;8.95;;;2.33;;
31386;SDS011;69978;50.096;8.448;2023-10-09T04:16:11;8.52;;;2.97;;
31386;SDS011;69978;50.096;8.448;2023-10-09T04:18:52;9.13;;;2.25;;
31386;SDS011;69978;50.096;8.448;2023-10-09T04:21:21;10.20;;;2.40;;
31386;SDS011;69978;50.096;8.448;2023-10-09T04:23:59;8.45;;;2.40;;
31386;SDS011;69978;50.096;8.448;2023-10-09T04:26:46;6.75;;;2.38;;
31386;SDS011;69978;50.096;8.448;2023-10-09T04:29:12;6.82;;;2.30;;
31386;SDS011;69978;50.096;8.448;2023-10-09T04:31:53;6.85;;;2.30;;
31386;SDS011;69978;50.096;8.448;2023-10-09T04:34:24;14.85;;;2.80;;
31386;SDS011;69978;50.096;8.448;2023-10-09T04:36:54;6.40;;;2.20;;
31386;SDS011;69978;50.096;8.448;2023-10-09T04:39:44;8.95;;;2.20;;
31386;SDS011;69978;50.096;8.448;2023-10-09T04:42:15;7.82;;;2.22;;
31386;SDS011;69978;50.096;8.448;2023-10-09T04:44:49;9.18;;;2.10;;
31386;SDS011;69978;50.096;8.448;2023-10-09T04:47:27;7.25;;;1.83;;
31386;SDS011;69978;50.096;8.448;2023-10-09T04:50:12;6.88;;;1.95;;
31386;SDS011;69978;50.096;8.448;2023-10-09T04:52:40;4.90;;;1.67;;
31386;SDS011;69978;50.096;8.448;2023-10-09T04:55:06;4.88;;;1.80;;
31386;SDS011;69978;50.096;8.448;2023-10-09T04:57:36;8.40;;;2.20;;
31386;SDS011;69978;50.096;8.448;2023-10-09T05:00:11;9.13;;;2.35;;
31386;SDS011;69978;50.096;8.448;2023-10-09T05:02:59;8.32;;;2.65;;
31386;SDS011;69978;50.096;8.448;2023-10-09T05:05:30;8.38;;;2.10;;
31386;SDS011;69978;50.096;8.448;2023-10-09T05:08:11;10.93;;;2.60;;
31386;SDS011;69978;50.096;8.448;2023-10-09T05:18:50;7.13;;;2.08;;
31386;SDS011;69978;50.096;8.448;2023-10-09T05:23:56;9.57;;;2.63;;
31386;SDS011;69978;50.096;8.448;2023-10-09T05:26:47;12.57;;;2.67;;
31386;SDS011;69978;50.096;8.448;2023-10-09T05:29:24;9.88;;;2.83;;
31386;SDS011;69978;50.096;8.448;2023-10-09T05:32:05;10.63;;;2.78;;
31386;SDS011;69978;50.096;8.448;2023-10-09T05:34:37;5.05;;;2.42;;
31386;SDS011;69978;50.096;8.448;2023-10-09T05:37:22;10.80;;;3.28;;
31386;SDS011;69978;50.096;8.448;2023-10-09T05:39:50;16.15;;;2.83;;
31386;SDS011;69978;50.096;8.448;2023-10-09T05:42:29;10.00;;;2.90;;
31386;SDS011;69978;50.096;8.448;2023-10-09T05:45:02;14.98;;;2.90;;
31386;SDS011;69978;50.096;8.448;2023-10-09T05:47:43;11.95;;;2.63;;
31386;SDS011;69978;50.096;8.448;2023-10-09T05:50:22;9.63;;;2.97;;
31386;SDS011;69978;50.096;8.448;2023-10-09T05:52:55;12.38;;;2.80;;
31386;SDS011;69978;50.096;8.448;2023-10-09T05:55:22;10.23;;;3.00;;
31386;SDS011;69978;50.096;8.448;2023-10-09T05:57:49;16.60;;;3.30;;
31386;SDS011;69978;50.096;8.448;2023-10-09T06:00:21;16.30;;;3.57;;
31386;SDS011;69978;50.096;8.448;2023-10-09T06:03:09;12.35;;;2.80;;
31386;SDS011;69978;50.096;8.448;2023-10-09T06:05:47;9.70;;;3.00;;
31386;SDS011;69978;50.096;8.448;2023-10-09T06:08:25;10.85;;;3.10;;
31386;SDS011;69978;50.096;8.448;2023-10-09T06:11:03;12.00;;;2.90;;
31386;SDS011;69978;50.096;8.448;2023-10-09T06:13:52;10.10;;;2.10;;
31386;SDS011;69978;50.096;8.448;2023-10-09T06:16:27;11.00;;;2.33;;
31386;SDS011;69978;50.096;8.448;2023-10-09T06:19:25;10.10;;;2.05;;
31386;SDS011;69978;50.096;8.448;2023-10-09T06:21:55;7.30;;;2.00;;
31386;SDS011;69978;50.096;8.448;2023-10-09T06:24:47;10.40;;;1.98;;
31386;SDS011;69978;50.096;8.448;2023-10-09T06:27:18;10.85;;;2.47;;
31386;SDS011;69978;50.096;8.448;2023-10-09T06:29:57;8.13;;;2.45;;
31386;SDS011;69978;50.096;8.448;2023-10-09T06:32:42;9.20;;;2.58;;
31386;SDS011;69978;50.096;8.448;2023-10-09T06:35:26;6.95;;;1.92;;
31386;SDS011;69978;50.096;8.448;2023-10-09T06:37:58;12.30;;;2.00;;
31386;SDS011;69978;50.096;8.448;2023-10-09T06:40:30;7.07;;;1.88;;
31386;SDS011;69978;50.096;8.448;2023-10-09T06:43:22;6.13;;;1.90;;
31386;SDS011;69978;50.096;8.448;2023-10-09T06:46:06;11.60;;;2.30;;
31386;SDS011;69978;50.096;8.448;2023-10-09T06:48:52;5.95;;;1.73;;
31386;SDS011;69978;50.096;8.448;2023-10-09T06:53:50;12.50;;;2.08;;
31386;SDS011;69978;50.096;8.448;2023-10-09T06:56:19;9.93;;;2.30;;
31386;SDS011;69978;50.096;8.448;2023-10-09T06:58:57;10.20;;;2.88;;
31386;SDS011;69978;50.096;8.448;2023-10-09T07:01:43;12.15;;;2.92;;
31386;SDS011;69978;50.096;8.448;2023-10-09T07:04:11;11.10;;;2.22;;
31386;SDS011;69978;50.096;8.448;2023-10-09T07:06:44;10.80;;;2.70;;
31386;SDS011;69978;50.096;8.448;2023-10-09T07:09:11;11.55;;;2.70;;
31386;SDS011;69978;50.096;8.448;2023-10-09T07:11:38;15.15;;;3.40;;
31386;SDS011;69978;50.096;8.448;2023-10-09T07:14:09;17.30;;;3.25;;
31386;SDS011;69978;50.096;8.448;2023-10-09T07:16:57;12.98;;;3.65;;
31386;SDS011;69978;50.096;8.448;2023-10-09T07:19:25;13.50;;;2.88;;
31386;SDS011;69978;50.096;8.448;2023-10-09T07:22:20;12.35;;;3.15;;
31386;SDS011;69978;50.096;8.448;2023-10-09T07:24:54;11.30;;;3.38;;
31386;SDS011;69978;50.096;8.448;2023-10-09T07:27:24;12.48;;;3.38;;
31386;SDS011;69978;50.096;8.448;2023-10-09T07:30:09;12.90;;;3.53;;
31386;SDS011;69978;50.096;8.448;2023-10-09T07:33:05;13.43;;;2.88;;
31386;SDS011;69978;50.096;8.448;2023-10-09T07:40:37;12.63;;;3.20;;
31386;SDS011;69978;50.096;8.448;2023-10-09T07:43:23;10.15;;;2.75;;
31386;SDS011;69978;50.096;8.448;2023-10-09T07:46:13;10.93;;;2.78;;
31386;SDS011;69978;50.096;8.448;2023-10-09T07:49:17;8.80;;;3.03;;
31386;SDS011;69978;50.096;8.448;2023-10-09T07:51:50;12.07;;;3.30;;
31386;SDS011;69978;50.096;8.448;2023-10-09T07:54:17;13.93;;;3.05;;
31386;SDS011;69978;50.096;8.448;2023-10-09T07:56:57;15.23;;;3.10;;
31386;SDS011;69978;50.096;8.448;2023-10-09T07:59:41;10.15;;;3.40;;
31386;SDS011;69978;50.096;8.448;2023-10-09T08:02:19;16.42;;;3.25;;
31386;SDS011;69978;50.096;8.448;2023-10-09T08:04:59;11.23;;;3.70;;
31386;SDS011;69978;50.096;8.448;2023-10-09T08:07:30;12.98;;;3.35;;
31386;SDS011;69978;50.096;8.448;2023-10-09T08:10:03;11.88;;;3.50;;
31386;SDS011;69978;50.096;8.448;2023-10-09T08:12:44;17.52;;;3.80;;
31386;SDS011;69978;50.096;8.448;2023-10-09T08:15:14;8.77;;;3.03;;
31386;SDS011;69978;50.096;8.448;2023-10-09T08:17:52;13.43;;;3.33;;
31386;SDS011;69978;50.096;8.448;2023-10-09T08:20:25;9.63;;;3.10;;
31386;SDS011;69978;50.096;8.448;2023-10-09T08:22:52;14.95;;;3.17;;
31386;SDS011;69978;50.096;8.448;2023-10-09T08:25:21;11.18;;;2.95;;
31386;SDS011;69978;50.096;8.448;2023-10-09T08:28:19;11.93;;;3.35;;
31386;SDS011;69978;50.096;8.448;2023-10-09T08:31:07;9.60;;;3.00;;
31386;SDS011;69978;50.096;8.448;2023-10-09T08:33:44;11.52;;;3.50;;
31386;SDS011;69978;50.096;8.448;2023-10-09T08:36:23;14.45;;;3.15;;
31386;SDS011;69978;50.096;8.448;2023-10-09T08:39:02;11.52;;;3.25;;
31386;SDS011;69978;50.096;8.448;2023-10-09T08:41:42;13.80;;;3.05;;
31386;SDS011;69978;50.096;8.448;2023-10-09T08:44:07;15.43;;;3.63;;
31386;SDS011;69978;50.096;8.448;2023-10-09T08:46:40;23.02;;;3.83;;
31386;SDS011;69978;50.096;8.448;2023-10-09T08:49:07;13.93;;;3.85;;
31386;SDS011;69978;50.096;8.448;2023-10-09T08:51:35;13.55;;;3.80;;
31386;SDS011;69978;50.096;8.448;2023-10-09T08:54:04;19.40;;;3.58;;
31386;SDS011;69978;50.096;8.448;2023-10-09T08:56:36;9.18;;;3.17;;
31386;SDS011;69978;50.096;8.448;2023-10-09T08:59:04;10.07;;;3.28;;
31386;SDS011;69978;50.096;8.448;2023-10-09T09:01:30;10.70;;;3.17;;
31386;SDS011;69978;50.096;8.448;2023-10-09T09:03:57;16.65;;;3.58;;
31386;SDS011;69978;50.096;8.448;2023-10-09T09:06:25;14.07;;;3.58;;
31386;SDS011;69978;50.096;8.448;2023-10-09T09:08:50;15.95;;;3.92;;
31386;SDS011;69978;50.096;8.448;2023-10-09T09:11:24;13.48;;;3.55;;
31386;SDS011;69978;50.096;8.448;2023-10-09T09:16:28;16.77;;;3.47;;
31386;SDS011;69978;50.096;8.448;2023-10-09T09:18:57;16.40;;;3.65;;
31386;SDS011;69978;50.096;8.448;2023-10-09T09:21:29;16.20;;;3.80;;
31386;SDS011;69978;50.096;8.448;2023-10-09T09:23:56;17.58;;;3.85;;
31386;SDS011;69978;50.096;8.448;2023-10-09T09:26:36;10.30;;;3.05;;
31386;SDS011;69978;50.096;8.448;2023-10-09T09:29:06;15.00;;;3.10;;
31386;SDS011;69978;50.096;8.448;2023-10-09T09:31:34;13.55;;;3.00;;
31386;SDS011;69978;50.096;8.448;2023-10-09T09:34:03;15.93;;;3.97;;
31386;SDS011;69978;50.096;8.448;2023-10-09T09:36:54;18.67;;;3.35;;
31386;SDS011;69978;50.096;8.448;2023-10-09T09:39:22;22.23;;;3.55;;
31386;SDS011;69978;50.096;8.448;2023-10-09T09:41:55;16.85;;;3.22;;
31386;SDS011;69978;50.096;8.448;2023-10-09T09:44:22;11.50;;;3.70;;
31386;SDS011;69978;50.096;8.448;2023-10-09T09:46:51;12.55;;;3.53;;
31386;SDS011;69978;50.096;8.448;2023-10-09T09:49:20;14.68;;;3.75;;
31386;SDS011;69978;50.096;8.448;2023-10-09T09:51:47;18.50;;;3.97;;
31386;SDS011;69978;50.096;8.448;2023-10-09T09:54:16;12.70;;;3.33;;
31386;SDS011;69978;50.096;8.448;2023-10-09T09:56:44;19.15;;;3.58;;
31386;SDS011;69978;50.096;8.448;2023-10-09T09:59:17;14.23;;;3.65;;
31386;SDS011;69978;50.096;8.448;2023-10-09T10:01:54;14.48;;;3.40;;
31386;SDS011;69978;50.096;8.448;2023-10-09T10:04:31;16.75;;;3.05;;
31386;SDS011;69978;50.096;8.448;2023-10-09T10:07:00;7.35;;;2.40;;
31386;SDS011;69978;50.096;8.448;2023-10-09T10:09:37;7.82;;;2.50;;
31386;SDS011;69978;50.096;8.448;2023-10-09T10:12:05;10.57;;;2.30;;
31386;SDS011;69978;50.096;8.448;2023-10-09T10:14:55;6.13;;;2.40;;
31386;SDS011;69978;50.096;8.448;2023-10-09T10:17:56;13.82;;;2.78;;
31386;SDS011;69978;50.096;8.448;2023-10-09T10:20:24;7.20;;;2.35;;
31386;SDS011;69978;50.096;8.448;2023-10-09T10:22:51;14.20;;;2.72;;
31386;SDS011;69978;50.096;8.448;2023-10-09T10:25:42;12.50;;;2.78;;
31386;SDS011;69978;50.096;8.448;2023-10-09T10:28:26;11.60;;;3.03;;
31386;SDS011;69978;50.096;8.448;2023-10-09T10:31:07;12.77;;;2.45;;
31386;SDS011;69978;50.096;8.448;2023-10-09T10:36:20;12.93;;;3.08;;
31386;SDS011;69978;50.096;8.448;2023-10-09T10:38:58;16.30;;;2.65;;
31386;SDS011;69978;50.096;8.448;2023-10-09T10:41:29;9.90;;;2.90;;
31386;SDS011;69978;50.096;8.448;2023-10-09T10:44:00;10.48;;;2.72;;
31386;SDS011;69978;50.096;8.448;2023-10-09T10:46:46;9.43;;;2.65;;
31386;SDS011;69978;50.096;8.448;2023-10-09T10:49:17;13.13;;;2.83;;
31386;SDS011;69978;50.096;8.448;2023-10-09T10:51:47;14.85;;;3.00;;
31386;SDS011;69978;50.096;8.448;2023-10-09T10:54:24;9.27;;;2.58;;
31386;SDS011;69978;50.096;8.448;2023-10-09T10:57:20;15.13;;;2.45;;
31386;SDS011;69978;50.096;8.448;2023-10-09T11:00:12;16.15;;;2.70;;
31386;SDS011;69978;50.096;8.448;2023-10-09T11:02:43;13.98;;;3.00;;
31386;SDS011;69978;50.096;8.448;2023-10-09T11:05:09;15.10;;;2.55;;
31386;SDS011;69978;50.096;8.448;2023-10-09T11:07:50;11.25;;;2.47;;
31386;SDS011;69978;50.096;8.448;2023-10-09T11:10:22;14.98;;;2.85;;
31386;SDS011;69978;50.096;8.448;2023-10-09T11:12:56;10.95;;;2.42;;
31386;SDS011;69978;50.096;8.448;2023-10-09T11:15:35;9.27;;;2.30;;
31386;SDS011;69978;50.096;8.448;2023-10-09T11:18:12;10.35;;;2.13;;
31386;SDS011;69978;50.096;8.448;2023-10-09T11:20:44;12.85;;;2.40;;
31386;SDS011;69978;50.096;8.448;2023-10-09T11:23:46;11.00;;;2.25;;
31386;SDS011;69978;50.096;8.448;2023-10-09T11:26:17;9.55;;;2.35;;
31386;SDS011;69978;50.096;8.448;2023-10-09T11:29:07;20.15;;;2.42;;
31386;SDS011;69978;50.096;8.448;2023-10-09T11:32:01;11.98;;;2.20;;
31386;SDS011;69978;50.096;8.448;2023-10-09T11:34:30;11.52;;;2.40;;
31386;SDS011;69978;50.096;8.448;2023-10-09T11:36:57;16.20;;;2.30;;
31386;SDS011;69978;50.096;8.448;2023-10-09T11:39:25;10.88;;;2.60;;
31386;SDS011;69978;50.096;8.448;2023-10-09T11:42:06;8.10;;;1.95;;
31386;SDS011;69978;50.096;8.448;2023-10-09T11:44:40;13.82;;;2.25;;
31386;SDS011;69978;50.096;8.448;2023-10-09T11:47:11;10.45;;;2.22;;
31386;SDS011;69978;50.096;8.448;2023-10-09T11:49:54;11.55;;;2.22;;
31386;SDS011;69978;50.096;8.448;2023-10-09T11:52:32;11.93;;;2.05;;
31386;SDS011;69978;50.096;8.448;2023-10-09T11:55:01;11.00;;;1.98;;
31386;SDS011;69978;50.096;8.448;2023-10-09T11:57:28;5.68;;;1.98;;
31386;SDS011;69978;50.096;8.448;2023-10-09T11:59:58;7.80;;;1.88;;
31386;SDS011;69978;50.096;8.448;2023-10-09T12:02:46;4.82;;;1.88;;
31386;SDS011;69978;50.096;8.448;2023-10-09T12:05:14;10.90;;;1.80;;
31386;SDS011;69978;50.096;8.448;2023-10-09T12:07:43;7.53;;;1.83;;
31386;SDS011;69978;50.096;8.448;2023-10-09T12:10:09;5.88;;;1.90;;
31386;SDS011;69978;50.096;8.448;2023-10-09T12:12:38;12.27;;;2.20;;
31386;SDS011;69978;50.096;8.448;2023-10-09T12:15:05;6.38;;;1.80;;
31386;SDS011;69978;50.096;8.448;2023-10-09T12:17:31;11.57;;;2.25;;
31386;SDS011;69978;50.096;8.448;2023-10-09T12:19:57;7.50;;;2.10;;
31386;SDS011;69978;50.096;8.448;2023-10-09T12:22:24;5.13;;;1.75;;
31386;SDS011;69978;50.096;8.448;2023-10-09T12:24:52;8.48;;;2.25;;
31386;SDS011;69978;50.096;8.448;2023-10-09T12:27:20;13.35;;;2.22;;
31386;SDS011;69978;50.096;8.448;2023-10-09T12:29:47;6.43;;;1.77;;
31386;SDS011;69978;50.096;8.448;2023-10-09T12:32:12;10.93;;;1.73;;
31386;SDS011;69978;50.096;8.448;2023-10-09T12:34:39;7.57;;;2.00;;
31386;SDS011;69978;50.096;8.448;2023-10-09T12:37:04;9.77;;;2.00;;
31386;SDS011;69978;50.096;8.448;2023-10-09T12:39:31;10.52;;;2.35;;
31386;SDS011;69978;50.096;8.448;2023-10-09T12:42:00;5.78;;;2.20;;
31386;SDS011;69978;50.096;8.448;2023-10-09T12:44:32;6.70;;;1.80;;
31386;SDS011;69978;50.096;8.448;2023-10-09T12:46:59;9.07;;;2.28;;
31386;SDS011;69978;50.096;8.448;2023-10-09T12:49:29;8.25;;;2.03;;
31386;SDS011;69978;50.096;8.448;2023-10-09T12:51:55;6.90;;;2.08;;
31386;SDS011;69978;50.096;8.448;2023-10-09T12:54:22;9.45;;;2.10;;
31386;SDS011;69978;50.096;8.448;2023-10-09T12:56:52;10.68;;;2.25;;
31386;SDS011;69978;50.096;8.448;2023-10-09T12:59:18;4.88;;;1.77;;
31386;SDS011;69978;50.096;8.448;2023-10-09T13:01:45;10.55;;;2.10;;
31386;SDS011;69978;50.096;8.448;2023-10-09T13:04:16;10.57;;;2.22;;
31386;SDS011;69978;50.096;8.448;2023-10-09T13:06:42;11.98;;;2.35;;
31386;SDS011;69978;50.096;8.448;2023-10-09T13:09:12;7.50;;;1.80;;
31386;SDS011;69978;50.096;8.448;2023-10-09T13:11:42;8.55;;;1.92;;
31386;SDS011;69978;50.096;8.448;2023-10-09T13:14:08;10.38;;;2.20;;
31386;SDS011;69978;50.096;8.448;2023-10-09T13:16:46;6.65;;;2.00;;
31386;SDS011;69978;50.096;8.448;2023-10-09T13:19:15;6.00;;;2.00;;
31386;SDS011;69978;50.096;8.448;2023-10-09T13:21:42;5.03;;;1.88;;
31386;SDS011;69978;50.096;8.448;2023-10-09T13:24:08;5.82;;;1.70;;
31386;SDS011;69978;50.096;8.448;2023-10-09T13:26:49;6.47;;;1.98;;
31386;SDS011;69978;50.096;8.448;2023-10-09T13:29:17;7.45;;;1.73;;
31386;SDS011;69978;50.096;8.448;2023-10-09T13:31:47;7.00;;;1.67;;
31386;SDS011;69978;50.096;8.448;2023-10-09T13:34:17;8.73;;;2.15;;
31386;SDS011;69978;50.096;8.448;2023-10-09T13:36:43;7.68;;;1.90;;
31386;SDS011;69978;50.096;8.448;2023-10-09T13:39:21;6.30;;;1.90;;
31386;SDS011;69978;50.096;8.448;2023-10-09T13:44:23;7.57;;;1.63;;
31386;SDS011;69978;50.096;8.448;2023-10-09T13:46:53;8.20;;;1.63;;
31386;SDS011;69978;50.096;8.448;2023-10-09T13:49:19;7.35;;;1.80;;
31386;SDS011;69978;50.096;8.448;2023-10-09T13:51:48;8.35;;;2.00;;
31386;SDS011;69978;50.096;8.448;2023-10-09T13:54:15;6.65;;;1.90;;
31386;SDS011;69978;50.096;8.448;2023-10-09T13:56:56;8.02;;;2.13;;
31386;SDS011;69978;50.096;8.448;2023-10-09T13:59:22;7.15;;;1.83;;
31386;SDS011;69978;50.096;8.448;2023-10-09T14:01:51;5.97;;;1.70;;
31386;SDS011;69978;50.096;8.448;2023-10-09T14:04:19;5.88;;;1.77;;
31386;SDS011;69978;50.096;8.448;2023-10-09T14:06:45;7.40;;;1.90;;
31386;SDS011;69978;50.096;8.448;2023-10-09T14:09:12;11.57;;;1.95;;
31386;SDS011;69978;50.096;8.448;2023-10-09T14:12:00;7.22;;;1.73;;
31386;SDS011;69978;50.096;8.448;2023-10-09T14:14:35;6.60;;;1.90;;
31386;SDS011;69978;50.096;8.448;2023-10-09T14:17:03;6.70;;;1.80;;
31386;SDS011;69978;50.096;8.448;2023-10-09T14:19:36;5.70;;;1.80;;
31386;SDS011;69978;50.096;8.448;2023-10-09T14:22:03;5.93;;;1.75;;
31386;SDS011;69978;50.096;8.448;2023-10-09T14:24:30;7.00;;;1.63;;
31386;SDS011;69978;50.096;8.448;2023-10-09T14:26:58;7.53;;;1.80;;
31386;SDS011;69978;50.096;8.448;2023-10-09T14:29:28;8.23;;;1.77;;
31386;SDS011;69978;50.096;8.448;2023-10-09T14:31:53;6.50;;;1.98;;
31386;SDS011;69978;50.096;8.448;2023-10-09T14:34:25;5.05;;;1.77;;
31386;SDS011;69978;50.096;8.448;2023-10-09T14:36:57;6.63;;;1.90;;
31386;SDS011;69978;50.096;8.448;2023-10-09T14:39:26;7.47;;;1.70;;
31386;SDS011;69978;50.096;8.448;2023-10-09T14:41:52;8.50;;;1.60;;
31386;SDS011;69978;50.096;8.448;2023-10-09T14:44:22;9.60;;;2.05;;
31386;SDS011;69978;50.096;8.448;2023-10-09T14:46:49;5.88;;;1.65;;
31386;SDS011;69978;50.096;8.448;2023-10-09T14:49:15;7.13;;;1.45;;
31386;SDS011;69978;50.096;8.448;2023-10-09T14:51:47;11.07;;;1.83;;
31386;SDS011;69978;50.096;8.448;2023-10-09T14:54:13;6.00;;;1.83;;
31386;SDS011;69978;50.096;8.448;2023-10-09T14:56:43;8.50;;;1.77;;
31386;SDS011;69978;50.096;8.448;2023-10-09T14:59:10;6.72;;;1.88;;
31386;SDS011;69978;50.096;8.448;2023-10-09T15:01:37;9.02;;;1.90;;
31386;SDS011;69978;50.096;8.448;2023-10-09T15:04:02;6.45;;;1.60;;
31386;SDS011;69978;50.096;8.448;2023-10-09T15:06:28;5.03;;;1.60;;
31386;SDS011;69978;50.096;8.448;2023-10-09T15:08:58;7.45;;;1.90;;
31386;SDS011;69978;50.096;8.448;2023-10-09T15:11:32;6.82;;;1.90;;
31386;SDS011;69978;50.096;8.448;2023-10-09T15:13:59;6.38;;;1.80;;
31386;SDS011;69978;50.096;8.448;2023-10-09T15:16:25;3.92;;;1.50;;
31386;SDS011;69978;50.096;8.448;2023-10-09T15:18:53;6.40;;;2.28;;
31386;SDS011;69978;50.096;8.448;2023-10-09T15:21:19;9.55;;;1.95;;
31386;SDS011;69978;50.096;8.448;2023-10-09T15:23:51;9.77;;;1.65;;
31386;SDS011;69978;50.096;8.448;2023-10-09T15:26:19;8.52;;;2.10;;
31386;SDS011;69978;50.096;8.448;2023-10-09T15:28:46;6.90;;;1.77;;
31386;SDS011;69978;50.096;8.448;2023-10-09T15:31:11;6.03;;;1.52;;
31386;SDS011;69978;50.096;8.448;2023-10-09T15:33:39;10.90;;;1.98;;
31386;SDS011;69978;50.096;8.448;2023-10-09T15:36:10;6.63;;;1.98;;
31386;SDS011;69978;50.096;8.448;2023-10-09T15:38:37;5.93;;;2.10;;
31386;SDS011;69978;50.096;8.448;2023-10-09T15:41:02;5.70;;;1.70;;
31386;SDS011;69978;50.096;8.448;2023-10-09T15:43:31;7.18;;;1.63;;
31386;SDS011;69978;50.096;8.448;2023-10-09T15:45:58;5.30;;;1.83;;